Olympic Champion — SYWD — position and weather

sailwx.info

Track history (hours):
 
Tides and Currents Weather Stations Pressure Air Temp Water Temp Dewpoint Dewpoint Depression Visibility Wind Speed Wind Dir Waves Ship Positions

Olympic Champion

Last reported at 2016-Jun-30 17:14 UTC. Time now 2016-Jun-30 17:50 UTC.
Position N 38°15' E 021°44'.

Length 204 m; draft 6.3 m.

Type: Neutral ship in war zone. MMSI: 237280000.

Date/timePositionNaut miles runAvg speedWind from/ knotsBaromVisibWave heightAir tempDewpointWater temp
2016-Jun-30 17:14N 38°15' E 021°44'0 0.0
2016-Jun-30 16:20N 38°15' E 021°44'0 0.0
2016-Jun-30 15:29N 38°15' E 021°44'0 0.0
2016-Jun-30 14:29N 38°15' E 021°44'0 0.0
2016-Jun-30 13:29N 38°15' E 021°44'0 0.0
2016-Jun-30 12:29N 38°15' E 021°44'0 0.0
2016-Jun-30 11:29N 38°15' E 021°44'8 8.8
2016-Jun-30 10:33N 38°16' E 021°34'41621.8
2016-Jun-29 15:28N 42°57' E 014°51'2224.4
2016-Jun-29 14:33N 43°12' E 014°29'4522.8
2016-Jun-29 12:34N 43°41' E 013°40'8 8.0
2016-Jun-29 11:33N 43°37' E 013°30'0 0.0
2016-Jun-29 10:32N 43°37' E 013°30'0 0.0
2016-Jun-29 09:25N 43°37' E 013°30'0 0.0
2016-Jun-29 08:33N 43°37' E 013°30'0 0.0
2016-Jun-29 07:34N 43°37' E 013°30'0 0.0
2016-Jun-29 06:32N 43°37' E 013°30'0 0.0
2016-Jun-29 05:32N 43°37' E 013°30'0 0.0
2016-Jun-29 02:13N 43°37' E 013°30'0 0.0
2016-Jun-29 01:33N 43°37' E 013°30'0 0.0
2016-Jun-28 23:28N 43°37' E 013°30'0 0.0
2016-Jun-28 22:34N 43°37' E 013°30'0 0.0
2016-Jun-28 18:10N 43°37' E 013°30'0 0.0
2016-Jun-28 17:33N 43°37' E 013°30'  
2016-Jun-25 16:07N 43°38' E 013°30'1 0.2
2016-Jun-25 12:33N 43°37' E 013°30'1212.3
2016-Jun-25 11:34N 43°42' E 013°46'43423.6
2016-Jun-24 17:12N 38°34' E 020°31'1927.1
2016-Jun-24 16:31N 38°24' E 020°52'2526.4
2016-Jun-24 15:34N 38°15' E 021°22'11 2.3
2016-Jun-24 10:32N 38°14' E 021°36'2121.3
2016-Jun-24 09:34N 38°16' E 021°10'3423.6
2016-Jun-24 08:06N 38°33' E 020°32'  
2016-Jun-21 17:29N 38°35' E 020°31'2223.6
2016-Jun-21 16:34N 38°22' E 020°55'2322.7
2016-Jun-21 15:33N 38°15' E 021°22'17 1.5
2016-Jun-21 04:26N 38°14' E 021°43'  
Track history (hours):
 
Tides and Currents Weather Stations Pressure Air Temp Water Temp Dewpoint Dewpoint Depression Visibility Wind Speed Wind Dir Waves Ship Positions

Olympic Champion

Last reported at 2016-Jun-30 17:14 UTC. Time now 2016-Jun-30 17:50 UTC.
Position N 38°15' E 021°44'.

Length 204 m; draft 6.3 m.

Type: Neutral ship in war zone. MMSI: 237280000.

Date/timePositionNaut miles runAvg speedWind from/ knotsBaromVisibWave heightAir tempDewpointWater temp
2016-Jun-30 17:14N 38°15' E 021°44'0 0.0
2016-Jun-30 16:20N 38°15' E 021°44'0 0.0
2016-Jun-30 15:29N 38°15' E 021°44'0 0.0
2016-Jun-30 14:29N 38°15' E 021°44'0 0.0
2016-Jun-30 13:29N 38°15' E 021°44'0 0.0
2016-Jun-30 12:29N 38°15' E 021°44'0 0.0
2016-Jun-30 11:29N 38°15' E 021°44'8 8.8
2016-Jun-30 10:33N 38°16' E 021°34'41621.8
2016-Jun-29 15:28N 42°57' E 014°51'2224.4
2016-Jun-29 14:33N 43°12' E 014°29'4522.8
2016-Jun-29 12:34N 43°41' E 013°40'8 8.0
2016-Jun-29 11:33N 43°37' E 013°30'0 0.0
2016-Jun-29 10:32N 43°37' E 013°30'0 0.0
2016-Jun-29 09:25N 43°37' E 013°30'0 0.0
2016-Jun-29 08:33N 43°37' E 013°30'0 0.0
2016-Jun-29 07:34N 43°37' E 013°30'0 0.0
2016-Jun-29 06:32N 43°37' E 013°30'0 0.0
2016-Jun-29 05:32N 43°37' E 013°30'0 0.0
2016-Jun-29 02:13N 43°37' E 013°30'0 0.0
2016-Jun-29 01:33N 43°37' E 013°30'0 0.0
2016-Jun-28 23:28N 43°37' E 013°30'0 0.0
2016-Jun-28 22:34N 43°37' E 013°30'0 0.0
2016-Jun-28 18:10N 43°37' E 013°30'0 0.0
2016-Jun-28 17:33N 43°37' E 013°30'  
2016-Jun-25 16:07N 43°38' E 013°30'1 0.2
2016-Jun-25 12:33N 43°37' E 013°30'1212.3
2016-Jun-25 11:34N 43°42' E 013°46'43423.6
2016-Jun-24 17:12N 38°34' E 020°31'1927.1
2016-Jun-24 16:31N 38°24' E 020°52'2526.4
2016-Jun-24 15:34N 38°15' E 021°22'11 2.3
2016-Jun-24 10:32N 38°14' E 021°36'2121.3
2016-Jun-24 09:34N 38°16' E 021°10'3423.6
2016-Jun-24 08:06N 38°33' E 020°32'  
2016-Jun-21 17:29N 38°35' E 020°31'2223.6
2016-Jun-21 16:34N 38°22' E 020°55'2322.7
2016-Jun-21 15:33N 38°15' E 021°22'17 1.5
2016-Jun-21 04:26N 38°14' E 021°43'  

Dump ship's entire track history